Time;durP1;ratioP1;P1;durP2;ratioP2;P2;SDS_P1;SDS_P2;PMS_P1;PMS_P2;Temp;Humidity;BMP_temperature;BMP_pressure;BME280_temperature;BME280_humidity;BME280_pressure;Samples;Min_cycle;Max_cycle;Signal;HPM_P1;HPM_P2
2021/06/23 00:00:57;;;;;;;16.20;6.65;;;;;;;20.84;76.14;100192.33;125304;1102;104328;-80
2021/06/23 00:03:28;;;;;;;13.35;6.50;;;;;;;20.82;76.79;100194.14;125299;1102;104678;-77
2021/06/23 00:05:59;;;;;;;17.80;6.73;;;;;;;20.81;76.51;100193.23;125305;1102;104188;-79
2021/06/23 00:08:29;;;;;;;20.40;6.83;;;;;;;20.80;76.73;100178.16;125247;1102;104291;-79
2021/06/23 00:11:10;;;;;;;16.83;6.80;;;;;;;20.78;76.57;100177.27;125329;1102;104162;-79
2021/06/23 00:13:44;;;;;;;19.03;7.17;;;;;;;20.75;76.18;100169.30;125297;1102;104251;-80
2021/06/23 00:16:14;;;;;;;16.67;7.47;;;;;;;20.72;76.53;100173.80;125290;1102;104285;-80
2021/06/23 00:18:46;;;;;;;19.27;7.03;;;;;;;20.69;76.83;100181.83;126131;1099;104142;-80
2021/06/23 00:21:17;;;;;;;18.70;7.20;;;;;;;20.67;76.26;100180.97;126299;1097;104293;-79
2021/06/23 00:24:11;;;;;;;19.83;7.70;;;;;;;20.64;77.41;100181.84;126352;1098;104182;-79
2021/06/23 00:26:42;;;;;;;18.60;7.07;;;;;;;20.62;76.83;100181.86;125322;1099;104265;-78
2021/06/23 00:29:13;;;;;;;17.47;7.20;;;;;;;20.61;77.53;100182.75;126204;1099;104146;-80
2021/06/23 00:31:44;;;;;;;19.05;7.55;;;;;;;20.61;76.77;100184.55;126317;1099;104322;-80
2021/06/23 00:34:17;;;;;;;15.97;6.57;;;;;;;20.59;76.87;100192.55;126304;1099;104332;-80
2021/06/23 00:36:48;;;;;;;18.75;8.20;;;;;;;20.57;77.31;100182.80;126330;1099;104137;-79
2021/06/23 00:39:18;;;;;;;22.07;7.23;;;;;;;20.53;77.81;100176.63;126267;1099;105228;-80
2021/06/23 00:41:49;;;;;;;16.07;6.60;;;;;;;20.51;77.58;100188.22;125377;1099;104140;-80
2021/06/23 00:44:30;;;;;;;17.20;7.50;;;;;;;20.49;77.04;100188.23;126315;1099;104169;-79
2021/06/23 00:47:06;;;;;;;16.33;7.50;;;;;;;20.48;77.54;100190.00;126279;1099;104252;-79
2021/06/23 00:49:38;;;;;;;19.20;7.70;;;;;;;20.48;78.10;100184.66;126241;1099;104983;-80
2021/06/23 00:52:14;;;;;;;16.80;7.20;;;;;;;20.49;77.44;100190.91;126284;1099;104177;-80
2021/06/23 00:55:10;;;;;;;13.80;6.80;;;;;;;20.47;78.05;100198.91;126334;1099;104159;-79
2021/06/23 00:57:47;;;;;;;15.57;7.70;;;;;;;20.52;77.68;100187.30;126298;1099;104210;-79
2021/06/23 01:00:22;;;;;;;16.30;6.77;;;;;;;20.56;77.59;100192.59;125442;1099;104137;-80
2021/06/23 01:02:54;;;;;;;19.17;7.17;;;;;;;20.59;78.81;100189.02;126314;1099;104134;-79
2021/06/23 01:05:29;;;;;;;16.90;7.30;;;;;;;20.61;77.58;100196.08;125362;1099;104230;-79
2021/06/23 01:08:00;;;;;;;15.17;6.63;;;;;;;20.65;78.37;100191.66;126339;1099;104242;-81
2021/06/23 01:10:35;;;;;;;17.13;6.83;;;;;;;20.68;78.57;100186.29;125466;1099;104140;-79
2021/06/23 01:13:33;;;;;;;15.50;6.70;;;;;;;20.70;78.52;100195.14;126295;1099;104198;-80
2021/06/23 01:16:08;;;;;;;13.40;6.80;;;;;;;20.71;78.50;100191.59;126338;1099;104152;-79
2021/06/23 01:18:40;;;;;;;15.97;7.30;;;;;;;20.72;78.14;100198.66;126252;1099;104302;-79
2021/06/23 01:21:12;;;;;;;17.17;6.60;;;;;;;20.69;78.30;100187.16;126326;1099;104175;-80
2021/06/23 01:23:43;;;;;;;14.20;6.87;;;;;;;20.68;77.95;100185.38;126375;1099;104219;-80
2021/06/23 01:26:15;;;;;;;18.83;6.50;;;;;;;20.63;77.96;100183.64;125343;1099;104133;-79
2021/06/23 01:28:51;;;;;;;17.00;6.90;;;;;;;20.60;77.69;100177.44;126271;1098;104136;-79
2021/06/23 01:31:35;;;;;;;14.47;6.67;;;;;;;20.58;78.39;100174.78;126273;1099;104140;-80
2021/06/23 01:34:05;;;;;;;16.63;7.03;;;;;;;20.63;78.17;100172.07;125383;1099;102390;-79
2021/06/23 01:36:38;;;;;;;18.13;7.10;;;;;;;20.69;78.47;100171.17;125374;1099;104149;-80
2021/06/23 01:39:08;;;;;;;14.53;7.07;;;;;;;20.71;78.63;100166.69;126240;1099;104146;-79
2021/06/23 01:41:43;;;;;;;14.07;6.63;;;;;;;20.72;78.53;100174.67;126310;1099;104731;-79
2021/06/23 01:44:14;;;;;;;18.63;7.40;;;;;;;20.73;78.20;100168.45;126304;1099;105001;-80
2021/06/23 01:46:45;;;;;;;23.17;7.20;;;;;;;20.72;77.92;100177.34;126353;1099;104139;-80
2021/06/23 01:49:23;;;;;;;16.60;6.47;;;;;;;20.65;77.99;100170.33;126273;1099;104165;-80
2021/06/23 01:51:56;;;;;;;17.17;6.97;;;;;;;20.57;78.66;100164.14;125369;1099;104188;-80
2021/06/23 01:54:27;;;;;;;16.87;6.60;;;;;;;20.51;77.96;100165.11;126348;1099;104215;-80
2021/06/23 01:56:58;;;;;;;19.53;7.70;;;;;;;20.47;78.67;100166.03;126331;1098;104312;-80
2021/06/23 01:59:30;;;;;;;14.73;6.17;;;;;;;20.43;78.85;100159.86;126295;1099;104168;-79
2021/06/23 02:02:25;;;;;;;16.23;7.00;;;;;;;20.40;78.55;100165.22;126302;1099;104346;-80
2021/06/23 02:05:08;;;;;;;21.77;6.60;;;;;;;20.38;78.40;100172.35;126304;1099;104318;-79
2021/06/23 02:07:58;;;;;;;12.53;6.17;;;;;;;20.35;78.79;100172.37;125387;1099;104240;-79
2021/06/23 02:10:50;;;;;;;16.47;6.70;;;;;;;20.31;79.30;100173.30;126248;1099;104143;-79
2021/06/23 02:13:55;;;;;;;17.60;6.67;;;;;;;20.29;78.98;100172.44;126304;1099;104136;-79
2021/06/23 02:16:50;;;;;;;16.63;7.60;;;;;;;20.28;79.45;100170.66;125187;1099;104233;-80
2021/06/23 02:19:24;;;;;;;15.50;6.37;;;;;;;20.28;79.19;100170.66;125324;1102;104251;-79
2021/06/23 02:22:18;;;;;;;15.27;7.17;;;;;;;20.28;79.27;100168.00;126208;1098;104149;-80
2021/06/23 02:24:54;;;;;;;16.10;6.93;;;;;;;20.27;79.05;100171.55;125413;1099;104223;-79
2021/06/23 02:27:34;;;;;;;15.93;6.70;;;;;;;20.24;79.08;100163.58;126315;1099;104229;-79
2021/06/23 02:30:06;;;;;;;15.53;6.57;;;;;;;20.23;79.31;100175.16;126305;1098;104616;-78
2021/06/23 02:32:40;;;;;;;18.45;6.72;;;;;;;20.26;79.40;100172.47;126299;1099;104149;-80
2021/06/23 02:35:12;;;;;;;18.30;6.55;;;;;;;20.26;79.32;100173.34;126335;1099;104156;-78
2021/06/23 02:37:51;;;;;;;13.77;7.03;;;;;;;20.28;79.71;100178.66;126306;1098;104178;-80
2021/06/23 02:40:24;;;;;;;15.47;6.17;;;;;;;20.32;79.19;100188.40;126275;1099;104140;-79
2021/06/23 02:43:02;;;;;;;17.40;6.57;;;;;;;20.35;79.34;100198.12;126302;1099;117725;-79
2021/06/23 02:45:34;;;;;;;18.23;6.00;;;;;;;20.39;79.43;100206.07;126298;1099;104301;-79
2021/06/23 02:48:07;;;;;;;17.50;6.20;;;;;;;20.41;79.77;100209.63;125294;1099;104198;-78
2021/06/23 02:51:04;;;;;;;17.37;6.60;;;;;;;20.44;78.86;100224.69;126178;1099;104249;-79
2021/06/23 02:53:38;;;;;;;17.00;6.58;;;;;;;20.45;79.05;100216.67;126366;1099;104169;-80
2021/06/23 02:56:10;;;;;;;14.70;6.40;;;;;;;20.48;78.85;100223.77;126327;1099;104172;-79
2021/06/23 02:58:53;;;;;;;16.50;6.73;;;;;;;20.55;79.62;100232.58;126270;1099;104322;-78
2021/06/23 03:01:24;;;;;;;17.93;6.50;;;;;;;20.58;79.48;100229.89;126171;1099;104191;-79
2021/06/23 03:03:57;;;;;;;17.95;7.20;;;;;;;20.65;80.03;100237.84;126304;1099;104222;-78
2021/06/23 03:06:35;;;;;;;14.57;6.50;;;;;;;20.73;79.40;100243.09;125229;1099;104149;-79
2021/06/23 03:09:07;;;;;;;15.40;7.20;;;;;;;20.76;79.18;100245.73;126326;1099;104180;-79
2021/06/23 03:11:57;;;;;;;13.80;6.37;;;;;;;20.86;79.32;100250.98;126271;1099;104284;-79
2021/06/23 03:14:44;;;;;;;15.77;6.00;;;;;;;20.96;79.08;100247.33;126341;1099;104159;-79
2021/06/23 03:17:15;;;;;;;16.23;6.37;;;;;;;21.04;79.33;100248.11;126364;1099;104174;-77
2021/06/23 03:19:46;;;;;;;17.07;6.40;;;;;;;21.13;79.15;100248.00;126352;1099;104149;-79
2021/06/23 03:22:17;;;;;;;16.97;6.80;;;;;;;21.19;78.65;100257.70;126267;1099;104789;-80
2021/06/23 03:24:49;;;;;;;15.90;6.00;;;;;;;21.21;78.93;100255.92;126317;1099;104146;-79
2021/06/23 03:27:21;;;;;;;19.30;6.53;;;;;;;21.27;79.02;100265.61;125362;1099;104198;-79
2021/06/23 03:29:52;;;;;;;19.40;6.70;;;;;;;21.31;79.28;100272.69;125330;1099;104312;-79
2021/06/23 03:32:26;;;;;;;20.17;5.77;;;;;;;21.30;79.53;100270.91;126296;1099;104216;-79
2021/06/23 03:34:58;;;;;;;22.27;6.75;;;;;;;21.29;79.21;100271.84;126324;1098;104672;-79
2021/06/23 03:37:28;;;;;;;14.20;6.67;;;;;;;21.28;79.14;100278.06;125326;1099;104329;-79
2021/06/23 03:39:59;;;;;;;13.50;6.00;;;;;;;21.28;79.20;100284.28;125376;1099;104165;-79
2021/06/23 03:42:31;;;;;;;15.00;6.13;;;;;;;21.29;79.27;100280.72;125349;1099;104214;-79
2021/06/23 03:45:03;;;;;;;21.47;7.00;;;;;;;21.30;79.07;100278.92;126320;1099;104287;-80
2021/06/23 03:47:35;;;;;;;14.10;6.13;;;;;;;21.33;79.55;100287.80;126346;1099;104207;-79
2021/06/23 03:50:09;;;;;;;21.40;6.77;;;;;;;21.39;79.23;100285.95;126289;1099;104146;-80
2021/06/23 03:52:41;;;;;;;15.83;6.20;;;;;;;21.42;79.54;100286.78;126293;1099;104203;-79
2021/06/23 03:55:20;;;;;;;20.40;6.40;;;;;;;21.49;79.32;100282.30;126301;1099;104241;-79
2021/06/23 03:57:53;;;;;;;22.37;7.10;;;;;;;21.61;79.68;100297.27;126348;1099;104210;-80
2021/06/23 04:00:27;;;;;;;17.37;6.80;;;;;;;21.70;79.35;100291.80;126348;1099;104163;-80
2021/06/23 04:03:07;;;;;;;17.35;7.05;;;;;;;21.72;79.30;100304.23;126231;1099;104240;-79
2021/06/23 04:05:52;;;;;;;26.67;7.40;;;;;;;21.74;78.43;100296.21;126307;1099;104143;-79
2021/06/23 04:08:23;;;;;;;18.37;6.40;;;;;;;21.77;78.95;100293.50;125380;1099;104246;-78
2021/06/23 04:10:56;;;;;;;18.03;6.33;;;;;;;21.83;78.95;100287.17;125400;1099;104217;-78
2021/06/23 04:13:27;;;;;;;17.30;7.23;;;;;;;21.87;78.81;100283.56;126282;1099;104248;-79
2021/06/23 04:15:58;;;;;;;19.87;6.50;;;;;;;21.93;78.81;100282.60;126311;1099;104386;-79
2021/06/23 04:18:30;;;;;;;22.63;7.17;;;;;;;21.97;78.97;100278.95;126332;1099;104150;-79
2021/06/23 04:21:01;;;;;;;20.50;6.67;;;;;;;21.98;78.84;100270.05;126265;1099;104219;-78
2021/06/23 04:23:32;;;;;;;22.47;5.97;;;;;;;22.02;78.55;100269.11;125359;1099;104137;-79
2021/06/23 04:26:03;;;;;;;23.13;6.93;;;;;;;22.11;78.68;100266.30;126300;1099;104220;-77
2021/06/23 04:28:34;;;;;;;19.67;6.63;;;;;;;22.22;79.13;100263.42;126192;1099;104312;-77
2021/06/23 04:31:05;;;;;;;18.00;6.30;;;;;;;22.32;78.91;100270.44;126338;1099;104168;-77
2021/06/23 04:33:36;;;;;;;21.47;6.13;;;;;;;22.39;78.99;100271.20;126275;1099;104152;-77
2021/06/23 04:36:13;;;;;;;20.83;6.63;;;;;;;22.41;78.88;100270.28;126342;1099;104145;-78
2021/06/23 04:38:44;;;;;;;16.47;6.23;;;;;;;22.46;78.88;100261.31;126215;1099;104299;-78
2021/06/23 04:41:17;;;;;;;19.77;6.63;;;;;;;22.49;78.69;100258.59;126275;1099;104169;-78
2021/06/23 04:43:47;;;;;;;19.83;6.30;;;;;;;22.51;78.73;100257.63;125311;1099;104153;-79
2021/06/23 04:46:18;;;;;;;19.03;6.80;;;;;;;22.56;78.43;100262.91;126273;1099;104143;-79
2021/06/23 04:48:49;;;;;;;22.57;5.97;;;;;;;22.61;78.56;100267.27;125425;1099;104287;-79
2021/06/23 04:51:29;;;;;;;22.43;6.80;;;;;;;22.64;78.33;100265.44;126296;1098;104149;-79
2021/06/23 04:54:00;;;;;;;24.70;6.50;;;;;;;22.68;78.56;100268.03;126231;1099;104259;-78
2021/06/23 04:56:31;;;;;;;26.30;6.97;;;;;;;22.72;78.51;100272.43;126299;1099;104123;-78
2021/06/23 04:59:03;;;;;;;24.05;6.95;;;;;;;22.75;78.26;100275.05;125321;1099;104226;-77
2021/06/23 05:01:36;;;;;;;26.93;7.13;;;;;;;22.79;78.22;100275.87;126313;1099;104146;-78
2021/06/23 05:04:11;;;;;;;22.40;6.90;;;;;;;22.84;78.28;100276.66;126223;1099;104230;-77
2021/06/23 05:06:41;;;;;;;28.37;7.87;;;;;;;22.88;78.59;100270.34;126329;1099;104978;-78
2021/06/23 05:09:12;;;;;;;21.97;6.80;;;;;;;22.94;77.87;100270.23;126335;1099;104149;-77
2021/06/23 05:11:46;;;;;;;26.37;7.50;;;;;;;22.98;78.05;100281.75;126284;1099;104178;-77
2021/06/23 05:14:16;;;;;;;20.97;6.50;;;;;;;23.03;78.19;100277.22;126269;1099;104149;-77
2021/06/23 05:16:51;;;;;;;24.13;6.57;;;;;;;23.05;77.87;100277.19;126315;1099;104200;-78
2021/06/23 05:19:22;;;;;;;29.97;6.77;;;;;;;23.06;77.85;100286.95;126272;1099;104156;-78
2021/06/23 05:21:53;;;;;;;28.87;6.73;;;;;;;23.03;77.66;100279.89;125391;1099;104143;-78
2021/06/23 05:24:24;;;;;;;27.07;6.77;;;;;;;23.05;77.63;100277.19;125272;1099;104139;-78
2021/06/23 05:26:56;;;;;;;26.03;7.83;;;;;;;23.09;77.88;100279.81;126148;1099;104181;-78
2021/06/23 05:29:29;;;;;;;25.33;7.33;;;;;;;23.21;77.63;100289.38;126042;1099;104229;-78
2021/06/23 05:32:00;;;;;;;25.97;7.43;;;;;;;23.39;77.72;100287.23;126117;1099;104299;-78
2021/06/23 05:34:31;;;;;;;19.33;6.40;;;;;;;23.56;77.81;100290.46;126140;1099;104159;-79
2021/06/23 05:37:05;;;;;;;27.17;7.13;;;;;;;23.73;77.35;100282.03;126243;1099;104701;-80
2021/06/23 05:39:39;;;;;;;21.03;6.83;;;;;;;23.88;77.37;100285.34;126132;1099;104641;-81
2021/06/23 05:42:13;;;;;;;31.60;7.95;;;;;;;24.05;77.36;100284.02;125322;1099;104242;-80
2021/06/23 05:44:50;;;;;;;30.83;8.40;;;;;;;24.15;77.06;100284.70;125254;1099;104143;-80
2021/06/23 05:47:23;;;;;;;33.30;7.53;;;;;;;24.22;77.12;100275.58;125186;1099;104232;-77
2021/06/23 05:49:58;;;;;;;25.80;7.90;;;;;;;24.31;76.92;100290.57;125312;1099;104191;-79
2021/06/23 05:52:33;;;;;;;25.97;7.77;;;;;;;24.34;76.76;100298.54;125316;1099;104277;-79
2021/06/23 05:55:08;;;;;;;24.17;6.77;;;;;;;24.39;76.71;100304.66;126075;1099;104181;-78
2021/06/23 05:57:41;;;;;;;26.40;7.33;;;;;;;24.42;76.82;100292.98;126171;1099;105152;-76
2021/06/23 06:00:17;;;;;;;29.20;6.57;;;;;;;24.44;76.21;100299.19;126200;1099;104297;-77
2021/06/23 06:02:51;;;;;;;24.83;7.20;;;;;;;24.48;76.51;100308.93;126094;1099;104137;-77
2021/06/23 06:05:23;;;;;;;21.73;6.60;;;;;;;24.53;76.52;100308.81;125939;1099;104169;-78
2021/06/23 06:08:02;;;;;;;22.50;6.70;;;;;;;24.62;76.43;100315.77;126146;1099;104203;-78
2021/06/23 06:10:35;;;;;;;29.93;7.17;;;;;;;24.72;76.10;100306.57;126187;1099;104140;-77
2021/06/23 06:13:08;;;;;;;29.90;8.07;;;;;;;24.81;76.01;100306.33;126259;1099;104222;-79
2021/06/23 06:15:42;;;;;;;28.47;8.23;;;;;;;24.87;76.15;100310.63;125313;1099;104220;-76
2021/06/23 06:18:14;;;;;;;32.48;10.85;;;;;;;24.92;76.08;100308.73;125286;1099;104271;-78
2021/06/23 06:20:48;;;;;;;31.57;11.47;;;;;;;24.96;75.90;100317.57;126183;1099;104218;-76
2021/06/23 06:23:20;;;;;;;35.03;12.87;;;;;;;25.00;75.80;100313.90;126095;1098;104159;-77
2021/06/23 06:25:54;;;;;;;33.67;12.40;;;;;;;25.05;75.92;100315.52;126123;1098;105505;-79
2021/06/23 06:28:33;;;;;;;32.40;10.30;;;;;;;25.14;75.41;100313.52;125391;1100;104207;-79
2021/06/23 06:31:12;;;;;;;24.73;8.03;;;;;;;25.22;75.02;100317.73;125332;1099;104201;-78
2021/06/23 06:33:44;;;;;;;23.47;8.07;;;;;;;25.26;75.01;100319.42;125251;1099;104217;-79
2021/06/23 06:36:19;;;;;;;25.97;8.43;;;;;;;25.30;75.19;100314.87;125998;1099;104166;-78
2021/06/23 06:38:53;;;;;;;27.03;7.53;;;;;;;25.35;74.84;100307.56;126218;1099;104166;-78
2021/06/23 06:41:31;;;;;;;25.83;8.20;;;;;;;25.38;74.59;100314.66;125990;1099;104802;-78
2021/06/23 06:44:04;;;;;;;32.07;8.93;;;;;;;25.38;75.23;100314.66;125273;1099;104217;-79
2021/06/23 06:46:37;;;;;;;32.03;8.80;;;;;;;25.46;74.50;100315.31;126117;1099;104217;-78
2021/06/23 06:49:12;;;;;;;34.97;8.13;;;;;;;25.55;74.67;100319.55;126049;1099;105454;-78
2021/06/23 06:51:47;;;;;;;29.63;8.17;;;;;;;25.64;74.67;100321.97;125241;1099;104265;-78
2021/06/23 06:54:18;;;;;;;33.20;8.57;;;;;;;25.77;74.29;100325.16;126003;1099;105159;-78
2021/06/23 06:56:53;;;;;;;32.50;8.53;;;;;;;25.93;74.38;100322.88;125945;1099;104082;-78
2021/06/23 06:59:27;;;;;;;34.17;8.03;;;;;;;26.03;73.92;100321.71;126090;1099;104146;-79
2021/06/23 07:02:01;;;;;;;32.93;8.20;;;;;;;26.13;74.08;100325.89;125222;1099;104159;-79
2021/06/23 07:04:36;;;;;;;31.07;8.70;;;;;;;26.21;73.62;100319.36;126154;1099;104255;-78
2021/06/23 07:07:12;;;;;;;34.33;8.67;;;;;;;26.22;73.64;100323.83;125229;1099;104312;-76
2021/06/23 07:09:50;;;;;;;31.13;8.23;;;;;;;26.28;73.42;100326.31;125242;1099;104198;-77
2021/06/23 07:12:22;;;;;;;37.53;8.70;;;;;;;26.36;73.32;100325.13;125274;1100;104236;-76
2021/06/23 07:14:59;;;;;;;34.53;8.77;;;;;;;26.40;73.69;100335.78;125302;1099;104255;-75
2021/06/23 07:17:30;;;;;;;39.07;9.63;;;;;;;26.42;73.42;100329.43;125687;1099;104304;-76
2021/06/23 07:20:07;;;;;;;36.40;9.33;;;;;;;26.47;72.95;100332.84;125209;1102;104348;-77
2021/06/23 07:22:39;;;;;;;31.10;8.23;;;;;;;26.54;73.29;100333.55;125118;1101;104380;-76
2021/06/23 07:25:14;;;;;;;36.33;8.87;;;;;;;26.63;72.72;100332.33;125074;1102;104261;-76
2021/06/23 07:27:51;;;;;;;30.53;8.23;;;;;;;26.68;72.81;100323.22;125034;1102;104326;-76
2021/06/23 07:30:24;;;;;;;34.40;8.27;;;;;;;26.79;72.54;100333.62;125075;1102;104245;-76
2021/06/23 07:33:00;;;;;;;32.40;8.45;;;;;;;26.99;72.87;100337.42;125174;1102;104175;-76
2021/06/23 07:38:17;;;;;;;33.27;8.30;;;;;;;27.20;72.27;100344.74;125077;1102;104341;-77
2021/06/23 07:40:54;;;;;;;44.50;9.27;;;;;;;27.22;72.38;100342.89;125105;1102;104242;-77
2021/06/23 07:43:29;;;;;;;32.50;8.80;;;;;;;27.29;72.11;100334.59;125211;1101;104223;-77
2021/06/23 07:46:03;;;;;;;31.73;8.77;;;;;;;27.33;72.04;100344.33;125191;1102;104194;-75
2021/06/23 07:48:38;;;;;;;40.73;9.10;;;;;;;27.31;71.66;100338.10;125292;1102;104201;-76
2021/06/23 07:51:13;;;;;;;29.47;7.93;;;;;;;27.31;71.60;100338.10;125143;1102;104320;-76
2021/06/23 07:56:41;;;;;;;37.93;8.17;;;;;;;27.23;71.21;100331.16;125093;1102;104182;-75
2021/06/23 08:10:17;;;;;;;37.67;9.03;;;;;;;27.09;71.01;100345.13;125353;1099;104235;-77
2021/06/23 08:12:57;;;;;;;36.97;8.97;;;;;;;27.08;71.19;100343.38;126136;1099;104184;-78
2021/06/23 08:15:43;;;;;;;33.17;8.73;;;;;;;27.12;71.15;100352.22;125525;1099;104194;-77
2021/06/23 08:18:20;;;;;;;36.47;8.90;;;;;;;27.22;71.39;100353.67;126133;1099;104252;-76
2021/06/23 08:21:00;;;;;;;36.55;8.85;;;;;;;27.43;70.89;100354.72;126056;1099;104325;-78
2021/06/23 08:23:33;;;;;;;27.83;8.57;;;;;;;27.73;71.21;100353.64;125341;1099;104293;-78
2021/06/23 08:26:06;;;;;;;36.80;8.87;;;;;;;28.02;70.88;100355.25;125353;1099;105681;-76
2021/06/23 08:28:37;;;;;;;39.95;9.55;;;;;;;28.30;70.79;100356.86;125246;1099;104210;-77
2021/06/23 08:31:13;;;;;;;38.27;8.90;;;;;;;28.55;70.75;100353.13;126167;1099;104213;-78
2021/06/23 08:33:55;;;;;;;;;;;;;;;;;;;;;
2021/06/23 08:36:29;;;;;;;40.23;9.83;;;;;;;28.89;70.27;100346.35;126116;1099;104164;-78
2021/06/23 08:39:02;;;;;;;43.50;10.10;;;;;;;29.07;69.90;100347.39;126144;1099;104198;-77
2021/06/23 08:41:37;;;;;;;39.37;9.10;;;;;;;29.28;69.53;100353.69;125187;1099;104203;-77
2021/06/23 08:44:09;;;;;;;38.87;9.13;;;;;;;29.43;69.29;100349.44;125321;1099;104252;-77
2021/06/23 08:46:44;;;;;;;40.17;9.05;;;;;;;29.56;68.94;100356.02;125324;1099;104248;-77
2021/06/23 08:49:17;;;;;;;38.55;9.50;;;;;;;29.68;68.87;100343.77;125643;1099;105364;-77
2021/06/23 08:51:53;;;;;;;37.43;8.37;;;;;;;29.78;68.75;100341.52;126157;1099;104143;-77
2021/06/23 08:54:28;;;;;;;45.07;8.93;;;;;;;29.88;68.37;100342.88;125239;1099;104200;-79
2021/06/23 08:57:04;;;;;;;37.27;9.00;;;;;;;29.94;68.26;100343.45;125193;1099;104287;-77
2021/06/23 08:59:42;;;;;;;43.17;9.50;;;;;;;29.99;67.67;100345.94;125194;1100;104159;-76
2021/06/23 09:02:16;;;;;;;38.53;8.00;;;;;;;30.04;67.10;100345.72;125255;1102;104191;-77
2021/06/23 09:05:01;;;;;;;34.47;7.50;;;;;;;30.06;66.76;100344.71;125211;1102;104405;-77
2021/06/23 09:07:44;;;;;;;44.80;9.50;;;;;;;30.10;66.21;100340.89;125190;1101;104190;-77
2021/06/23 09:10:36;;;;;;;39.23;8.67;;;;;;;30.15;66.42;100339.80;125084;1102;105804;-78
2021/06/23 09:13:25;;;;;;;41.73;9.50;;;;;;;30.29;66.30;100337.28;125254;1102;104179;-77
2021/06/23 09:16:10;;;;;;;38.50;8.73;;;;;;;30.41;65.77;100328.59;125217;1102;104149;-77
2021/06/23 09:18:48;;;;;;;38.07;8.60;;;;;;;30.45;65.60;100343.75;125167;1102;104145;-78
2021/06/23 09:21:24;;;;;;;40.40;8.97;;;;;;;30.49;65.16;100336.34;125200;1102;104156;-78
2021/06/23 09:24:01;;;;;;;35.47;8.93;;;;;;;30.54;65.00;100333.40;125189;1102;104495;-76
2021/06/23 09:26:42;;;;;;;35.37;8.03;;;;;;;30.53;64.32;100340.66;125227;1101;104254;-78
2021/06/23 09:29:20;;;;;;;35.07;7.93;;;;;;;30.49;64.03;100338.17;125228;1101;104156;-79
2021/06/23 09:32:00;;;;;;;31.27;7.90;;;;;;;30.53;63.76;100331.67;125201;1102;104318;-78
2021/06/23 09:34:38;;;;;;;50.67;8.90;;;;;;;30.57;63.41;100330.54;125503;1099;104216;-77
2021/06/23 09:40:21;;;;;;;36.67;9.23;;;;;;;30.69;63.30;100329.05;125152;1102;104175;-77
2021/06/23 09:42:59;;;;;;;40.67;8.60;;;;;;;30.76;62.93;100328.66;125168;1102;104331;-77
2021/06/23 09:45:32;;;;;;;33.73;8.13;;;;;;;30.82;62.79;100325.64;125005;1102;104188;-77
2021/06/23 09:48:09;;;;;;;38.53;7.97;;;;;;;30.89;62.19;100322.62;124973;1102;104295;-77
2021/06/23 09:50:42;;;;;;;40.40;7.65;;;;;;;30.93;61.73;100325.09;124808;1102;104318;-78
2021/06/23 09:53:24;;;;;;;42.13;7.73;;;;;;;30.95;61.70;100320.45;125074;1102;104197;-78
2021/06/23 09:55:56;;;;;;;31.27;6.87;;;;;;;31.03;61.28;100320.09;125103;1102;104239;-77
2021/06/23 09:58:37;;;;;;;48.83;9.17;;;;;;;31.15;61.05;100316.73;124929;1102;104211;-80
2021/06/23 10:01:16;;;;;;;32.60;7.27;;;;;;;31.14;60.19;100314.97;125030;1102;104160;-79
2021/06/23 10:04:05;;;;;;;36.17;7.70;;;;;;;31.16;60.15;100313.05;124894;1102;104238;-79
2021/06/23 10:06:45;;;;;;;40.50;7.83;;;;;;;31.13;60.00;100310.50;125108;1102;104140;-79
2021/06/23 10:09:21;;;;;;;37.87;7.57;;;;;;;31.17;59.95;100300.39;125121;1102;104220;-78
2021/06/23 10:12:00;;;;;;;41.17;7.27;;;;;;;31.24;59.52;100303.64;125249;1102;105554;-77
2021/06/23 10:14:34;;;;;;;30.03;7.07;;;;;;;31.22;59.14;100302.86;125156;1102;104162;-79
2021/06/23 10:17:06;;;;;;;33.17;7.10;;;;;;;31.21;58.99;100295.67;125013;1102;104198;-78
2021/06/23 10:19:39;;;;;;;30.20;6.77;;;;;;;31.22;58.31;100294.73;124975;1102;104267;-78
2021/06/23 10:22:10;;;;;;;38.45;7.30;;;;;;;31.24;58.33;100298.22;125057;1102;109156;-79
2021/06/23 10:24:43;;;;;;;38.60;7.23;;;;;;;31.19;58.08;100293.05;125025;1102;104289;-79
2021/06/23 10:27:15;;;;;;;36.00;7.20;;;;;;;31.21;57.88;100295.67;125012;1102;104259;-78
2021/06/23 10:29:48;;;;;;;34.17;8.27;;;;;;;31.29;57.99;100288.89;124893;1102;104576;-79
2021/06/23 10:32:23;;;;;;;38.67;7.13;;;;;;;31.35;56.83;100290.38;125210;1102;104150;-78
2021/06/23 10:34:55;;;;;;;34.70;6.33;;;;;;;31.32;56.83;100290.54;125119;1099;104262;-78
2021/06/23 10:37:32;;;;;;;30.08;6.75;;;;;;;31.33;56.35;100287.75;125120;1099;104153;-78
2021/06/23 10:40:09;;;;;;;38.80;7.43;;;;;;;31.33;56.39;100293.17;125115;1099;104246;-78
2021/06/23 10:42:46;;;;;;;40.77;7.77;;;;;;;31.33;56.07;100290.45;125082;1099;108177;-77
2021/06/23 10:45:22;;;;;;;33.93;6.73;;;;;;;31.34;55.99;100289.51;125183;1102;104393;-78
2021/06/23 10:48:04;;;;;;;38.83;7.30;;;;;;;31.39;56.03;100293.81;125118;1102;104293;-77
2021/06/23 10:50:35;;;;;;;32.30;6.67;;;;;;;31.41;55.74;100283.75;125139;1102;104318;-77
2021/06/23 10:53:30;;;;;;;35.47;7.13;;;;;;;31.40;55.24;100291.02;125125;1102;104280;-76
2021/06/23 10:56:04;;;;;;;33.57;7.20;;;;;;;31.33;55.00;100285.04;125160;1102;104005;-75
2021/06/23 10:58:37;;;;;;;34.13;6.93;;;;;;;31.33;54.72;100286.88;125186;1102;104153;-77
2021/06/23 11:01:15;;;;;;;39.70;6.70;;;;;;;31.34;54.53;100291.36;125079;1102;104303;-76
2021/06/23 11:04:04;;;;;;;35.47;7.67;;;;;;;31.34;54.40;100297.64;125212;1102;104339;-77
2021/06/23 11:06:44;;;;;;;40.57;7.90;;;;;;;31.32;54.39;100298.67;125289;1102;104156;-77
2021/06/23 11:09:26;;;;;;;34.53;7.03;;;;;;;31.33;54.00;100300.44;124911;1102;104306;-77
2021/06/23 11:11:59;;;;;;;38.17;7.20;;;;;;;31.35;53.87;100306.64;125095;1102;102202;-79
2021/06/23 11:14:35;;;;;;;33.23;7.40;;;;;;;31.38;53.26;100301.05;125109;1105;104329;-79
2021/06/23 11:17:32;;;;;;;38.03;7.03;;;;;;;31.37;53.32;100296.61;125040;1105;104341;-78
2021/06/23 11:20:33;;;;;;;33.43;6.30;;;;;;;31.35;52.42;100304.83;125288;1102;104408;-78
2021/06/23 11:23:41;;;;;;;40.37;6.80;;;;;;;31.32;52.39;100298.67;124963;1102;104146;-77
2021/06/23 11:26:46;;;;;;;39.63;8.33;;;;;;;31.33;52.57;100286.88;125171;1102;104319;-78
2021/06/23 11:29:31;;;;;;;37.20;7.57;;;;;;;31.44;52.44;100295.30;125150;1102;104214;-78
2021/06/23 11:32:11;;;;;;;46.40;7.90;;;;;;;31.51;52.23;100283.17;125197;1102;104177;-77
2021/06/23 11:34:59;;;;;;;38.97;7.57;;;;;;;31.60;51.95;100294.48;125241;1102;104328;-76
2021/06/23 11:37:37;;;;;;;41.27;7.20;;;;;;;31.62;51.83;100297.98;125121;1102;104351;-76
2021/06/23 11:40:25;;;;;;;41.63;7.63;;;;;;;31.57;51.68;100289.23;124922;1102;104236;-76
2021/06/23 11:43:02;;;;;;;34.70;7.13;;;;;;;31.61;51.74;100280.84;125197;1099;104274;-76
2021/06/23 11:45:33;;;;;;;43.60;8.43;;;;;;;31.68;51.63;100284.08;125175;1102;104191;-77
2021/06/23 11:48:10;;;;;;;46.27;8.97;;;;;;;31.71;51.67;100275.77;125147;1102;104210;-78
2021/06/23 11:50:59;;;;;;;39.80;7.73;;;;;;;31.74;51.57;100275.60;125148;1102;104207;-77
2021/06/23 11:53:35;;;;;;;49.90;8.37;;;;;;;31.82;51.53;100278.78;125216;1099;104181;-79
2021/06/23 11:56:09;;;;;;;40.30;8.67;;;;;;;31.84;51.23;100284.98;125124;1099;104152;-79
2021/06/23 11:58:43;;;;;;;41.77;8.77;;;;;;;31.87;51.08;100281.23;125188;1102;104272;-78
2021/06/23 12:01:18;;;;;;;39.10;8.23;;;;;;;31.82;50.75;100284.20;125205;1102;104178;-79